sensor_id;sensor_type;location;lat;lon;timestamp;P1;durP1;ratioP1;P2;durP2;ratioP2
52180;SDS011;38158;53.338;6.514;2022-07-12T00:01:17;6.93;;;4.80;;
52180;SDS011;38158;53.338;6.514;2022-07-12T00:03:43;8.45;;;5.95;;
52180;SDS011;38158;53.338;6.514;2022-07-12T00:06:09;7.45;;;4.88;;
52180;SDS011;38158;53.338;6.514;2022-07-12T00:08:35;6.82;;;4.68;;
52180;SDS011;38158;53.338;6.514;2022-07-12T00:11:01;8.13;;;4.75;;
52180;SDS011;38158;53.338;6.514;2022-07-12T00:13:27;7.50;;;5.07;;
52180;SDS011;38158;53.338;6.514;2022-07-12T00:15:52;8.77;;;6.05;;
52180;SDS011;38158;53.338;6.514;2022-07-12T00:18:18;8.43;;;5.88;;
52180;SDS011;38158;53.338;6.514;2022-07-12T00:20:44;8.48;;;6.25;;
52180;SDS011;38158;53.338;6.514;2022-07-12T00:23:09;9.55;;;5.75;;
52180;SDS011;38158;53.338;6.514;2022-07-12T00:25:35;9.05;;;5.93;;
52180;SDS011;38158;53.338;6.514;2022-07-12T00:28:01;9.07;;;5.78;;
52180;SDS011;38158;53.338;6.514;2022-07-12T00:30:27;7.95;;;5.43;;
52180;SDS011;38158;53.338;6.514;2022-07-12T00:32:52;7.57;;;5.15;;
52180;SDS011;38158;53.338;6.514;2022-07-12T00:35:18;8.98;;;5.13;;
52180;SDS011;38158;53.338;6.514;2022-07-12T00:37:44;10.20;;;4.75;;
52180;SDS011;38158;53.338;6.514;2022-07-12T00:40:10;8.50;;;5.43;;
52180;SDS011;38158;53.338;6.514;2022-07-12T00:42:37;7.85;;;5.18;;
52180;SDS011;38158;53.338;6.514;2022-07-12T00:45:04;7.75;;;4.85;;
52180;SDS011;38158;53.338;6.514;2022-07-12T00:47:32;7.75;;;5.25;;
52180;SDS011;38158;53.338;6.514;2022-07-12T00:50:08;8.43;;;5.30;;
52180;SDS011;38158;53.338;6.514;2022-07-12T00:52:37;8.32;;;5.32;;
52180;SDS011;38158;53.338;6.514;2022-07-12T00:55:04;5.85;;;4.35;;
52180;SDS011;38158;53.338;6.514;2022-07-12T00:57:32;8.98;;;5.53;;
52180;SDS011;38158;53.338;6.514;2022-07-12T00:59:58;8.15;;;5.35;;
52180;SDS011;38158;53.338;6.514;2022-07-12T01:02:24;7.80;;;5.22;;
52180;SDS011;38158;53.338;6.514;2022-07-12T01:04:51;7.80;;;5.50;;
52180;SDS011;38158;53.338;6.514;2022-07-12T01:09:44;8.90;;;5.28;;
52180;SDS011;38158;53.338;6.514;2022-07-12T01:12:10;9.87;;;5.80;;
52180;SDS011;38158;53.338;6.514;2022-07-12T01:14:37;10.00;;;6.35;;
52180;SDS011;38158;53.338;6.514;2022-07-12T01:17:05;8.15;;;5.93;;
52180;SDS011;38158;53.338;6.514;2022-07-12T01:19:32;9.05;;;6.25;;
52180;SDS011;38158;53.338;6.514;2022-07-12T01:21:59;10.20;;;6.97;;
52180;SDS011;38158;53.338;6.514;2022-07-12T01:24:27;8.93;;;6.15;;
52180;SDS011;38158;53.338;6.514;2022-07-12T01:26:53;8.25;;;5.75;;
52180;SDS011;38158;53.338;6.514;2022-07-12T01:29:19;7.75;;;5.45;;
52180;SDS011;38158;53.338;6.514;2022-07-12T01:31:45;8.37;;;5.90;;
52180;SDS011;38158;53.338;6.514;2022-07-12T01:34:11;8.00;;;5.17;;
52180;SDS011;38158;53.338;6.514;2022-07-12T01:36:39;8.02;;;5.07;;
52180;SDS011;38158;53.338;6.514;2022-07-12T01:39:06;9.07;;;6.18;;
52180;SDS011;38158;53.338;6.514;2022-07-12T01:41:32;10.88;;;6.90;;
52180;SDS011;38158;53.338;6.514;2022-07-12T01:43:58;8.77;;;5.68;;
52180;SDS011;38158;53.338;6.514;2022-07-12T01:46:24;8.00;;;5.82;;
52180;SDS011;38158;53.338;6.514;2022-07-12T01:48:50;12.70;;;7.60;;
52180;SDS011;38158;53.338;6.514;2022-07-12T01:51:16;8.18;;;6.20;;
52180;SDS011;38158;53.338;6.514;2022-07-12T01:53:41;8.60;;;6.70;;
52180;SDS011;38158;53.338;6.514;2022-07-12T01:56:07;10.38;;;6.78;;
52180;SDS011;38158;53.338;6.514;2022-07-12T01:58:34;8.88;;;6.35;;
52180;SDS011;38158;53.338;6.514;2022-07-12T02:01:00;7.53;;;5.82;;
52180;SDS011;38158;53.338;6.514;2022-07-12T02:03:26;8.00;;;5.70;;
52180;SDS011;38158;53.338;6.514;2022-07-12T02:05:51;9.25;;;5.85;;
52180;SDS011;38158;53.338;6.514;2022-07-12T02:08:17;9.57;;;6.07;;
52180;SDS011;38158;53.338;6.514;2022-07-12T02:10:43;7.93;;;5.63;;
52180;SDS011;38158;53.338;6.514;2022-07-12T02:13:09;7.38;;;5.13;;
52180;SDS011;38158;53.338;6.514;2022-07-12T02:15:35;7.85;;;6.00;;
52180;SDS011;38158;53.338;6.514;2022-07-12T02:18:01;8.27;;;5.80;;
52180;SDS011;38158;53.338;6.514;2022-07-12T02:20:27;7.15;;;5.22;;
52180;SDS011;38158;53.338;6.514;2022-07-12T02:22:53;7.75;;;5.43;;
52180;SDS011;38158;53.338;6.514;2022-07-12T02:25:19;6.65;;;4.90;;
52180;SDS011;38158;53.338;6.514;2022-07-12T02:27:44;7.60;;;5.70;;
52180;SDS011;38158;53.338;6.514;2022-07-12T02:30:10;6.65;;;4.97;;
52180;SDS011;38158;53.338;6.514;2022-07-12T02:32:37;8.00;;;5.72;;
52180;SDS011;38158;53.338;6.514;2022-07-12T02:35:03;8.32;;;5.53;;
52180;SDS011;38158;53.338;6.514;2022-07-12T02:39:55;7.35;;;5.68;;
52180;SDS011;38158;53.338;6.514;2022-07-12T02:42:41;8.77;;;5.75;;
52180;SDS011;38158;53.338;6.514;2022-07-12T02:45:08;8.00;;;5.75;;
52180;SDS011;38158;53.338;6.514;2022-07-12T02:47:38;7.68;;;5.72;;
52180;SDS011;38158;53.338;6.514;2022-07-12T02:50:05;10.32;;;6.28;;
52180;SDS011;38158;53.338;6.514;2022-07-12T02:52:32;8.20;;;5.40;;
52180;SDS011;38158;53.338;6.514;2022-07-12T02:54:58;8.02;;;5.18;;
52180;SDS011;38158;53.338;6.514;2022-07-12T02:57:23;8.60;;;5.97;;
52180;SDS011;38158;53.338;6.514;2022-07-12T02:59:49;8.73;;;5.40;;
52180;SDS011;38158;53.338;6.514;2022-07-12T03:02:15;9.32;;;5.55;;
52180;SDS011;38158;53.338;6.514;2022-07-12T03:04:40;7.85;;;5.40;;
52180;SDS011;38158;53.338;6.514;2022-07-12T03:07:06;7.10;;;4.50;;
52180;SDS011;38158;53.338;6.514;2022-07-12T03:09:32;6.72;;;4.75;;
52180;SDS011;38158;53.338;6.514;2022-07-12T03:11:57;6.10;;;4.22;;
52180;SDS011;38158;53.338;6.514;2022-07-12T03:14:23;6.60;;;5.03;;
52180;SDS011;38158;53.338;6.514;2022-07-12T03:16:49;7.15;;;4.82;;
52180;SDS011;38158;53.338;6.514;2022-07-12T03:19:15;9.85;;;5.50;;
52180;SDS011;38158;53.338;6.514;2022-07-12T03:21:40;10.48;;;5.57;;
52180;SDS011;38158;53.338;6.514;2022-07-12T03:24:06;6.88;;;5.05;;
52180;SDS011;38158;53.338;6.514;2022-07-12T03:26:32;9.15;;;6.07;;
52180;SDS011;38158;53.338;6.514;2022-07-12T03:28:57;13.15;;;5.97;;
52180;SDS011;38158;53.338;6.514;2022-07-12T03:31:26;7.82;;;5.78;;
52180;SDS011;38158;53.338;6.514;2022-07-12T03:33:52;10.07;;;6.43;;
52180;SDS011;38158;53.338;6.514;2022-07-12T03:36:17;9.82;;;6.40;;
52180;SDS011;38158;53.338;6.514;2022-07-12T03:38:43;11.05;;;7.32;;
52180;SDS011;38158;53.338;6.514;2022-07-12T03:41:09;12.30;;;7.80;;
52180;SDS011;38158;53.338;6.514;2022-07-12T03:43:34;12.20;;;7.43;;
52180;SDS011;38158;53.338;6.514;2022-07-12T03:46:00;19.58;;;7.15;;
52180;SDS011;38158;53.338;6.514;2022-07-12T03:48:26;15.18;;;6.95;;
52180;SDS011;38158;53.338;6.514;2022-07-12T03:50:52;9.00;;;7.00;;
52180;SDS011;38158;53.338;6.514;2022-07-12T03:53:17;10.27;;;6.88;;
52180;SDS011;38158;53.338;6.514;2022-07-12T03:55:43;14.95;;;7.18;;
52180;SDS011;38158;53.338;6.514;2022-07-12T03:58:09;8.87;;;6.43;;
52180;SDS011;38158;53.338;6.514;2022-07-12T04:00:35;18.98;;;7.32;;
52180;SDS011;38158;53.338;6.514;2022-07-12T04:03:01;20.75;;;8.05;;
52180;SDS011;38158;53.338;6.514;2022-07-12T04:05:26;13.50;;;6.70;;
52180;SDS011;38158;53.338;6.514;2022-07-12T04:07:52;28.27;;;7.28;;
52180;SDS011;38158;53.338;6.514;2022-07-12T04:10:19;23.65;;;7.50;;
52180;SDS011;38158;53.338;6.514;2022-07-12T04:12:45;12.30;;;6.50;;
52180;SDS011;38158;53.338;6.514;2022-07-12T04:15:11;27.45;;;6.93;;
52180;SDS011;38158;53.338;6.514;2022-07-12T04:17:37;26.63;;;6.90;;
52180;SDS011;38158;53.338;6.514;2022-07-12T04:20:03;32.58;;;7.07;;
52180;SDS011;38158;53.338;6.514;2022-07-12T04:22:30;43.03;;;7.38;;
52180;SDS011;38158;53.338;6.514;2022-07-12T04:24:55;8.15;;;6.20;;
52180;SDS011;38158;53.338;6.514;2022-07-12T04:27:21;39.60;;;6.70;;
52180;SDS011;38158;53.338;6.514;2022-07-12T04:29:47;19.02;;;6.50;;
52180;SDS011;38158;53.338;6.514;2022-07-12T04:32:13;24.92;;;7.35;;
52180;SDS011;38158;53.338;6.514;2022-07-12T04:34:38;26.75;;;6.80;;
52180;SDS011;38158;53.338;6.514;2022-07-12T04:37:04;26.38;;;7.22;;
52180;SDS011;38158;53.338;6.514;2022-07-12T04:39:30;10.85;;;6.72;;
52180;SDS011;38158;53.338;6.514;2022-07-12T04:41:55;35.53;;;7.47;;
52180;SDS011;38158;53.338;6.514;2022-07-12T04:44:21;95.95;;;10.10;;
52180;SDS011;38158;53.338;6.514;2022-07-12T04:46:47;12.27;;;7.20;;
52180;SDS011;38158;53.338;6.514;2022-07-12T04:49:12;15.18;;;7.65;;
52180;SDS011;38158;53.338;6.514;2022-07-12T04:51:38;18.35;;;7.32;;
52180;SDS011;38158;53.338;6.514;2022-07-12T04:54:04;16.58;;;8.00;;
52180;SDS011;38158;53.338;6.514;2022-07-12T04:56:30;11.45;;;7.15;;
52180;SDS011;38158;53.338;6.514;2022-07-12T04:58:55;15.93;;;8.25;;
52180;SDS011;38158;53.338;6.514;2022-07-12T05:01:21;11.25;;;7.78;;
52180;SDS011;38158;53.338;6.514;2022-07-12T05:03:47;17.27;;;7.65;;
52180;SDS011;38158;53.338;6.514;2022-07-12T05:06:13;23.98;;;8.52;;
52180;SDS011;38158;53.338;6.514;2022-07-12T05:08:38;17.15;;;7.65;;
52180;SDS011;38158;53.338;6.514;2022-07-12T05:11:04;70.18;;;9.85;;
52180;SDS011;38158;53.338;6.514;2022-07-12T05:13:30;14.75;;;8.15;;
52180;SDS011;38158;53.338;6.514;2022-07-12T05:15:56;24.70;;;9.63;;
52180;SDS011;38158;53.338;6.514;2022-07-12T05:18:22;36.03;;;9.25;;
52180;SDS011;38158;53.338;6.514;2022-07-12T05:20:48;17.80;;;9.43;;
52180;SDS011;38158;53.338;6.514;2022-07-12T05:23:13;40.20;;;8.98;;
52180;SDS011;38158;53.338;6.514;2022-07-12T05:25:39;12.48;;;6.78;;
52180;SDS011;38158;53.338;6.514;2022-07-12T05:28:05;18.00;;;6.77;;
52180;SDS011;38158;53.338;6.514;2022-07-12T05:30:31;22.35;;;6.60;;
52180;SDS011;38158;53.338;6.514;2022-07-12T05:32:58;14.20;;;6.25;;
52180;SDS011;38158;53.338;6.514;2022-07-12T05:35:23;8.38;;;5.88;;
52180;SDS011;38158;53.338;6.514;2022-07-12T05:37:49;9.90;;;6.07;;
52180;SDS011;38158;53.338;6.514;2022-07-12T05:40:15;11.52;;;6.45;;
52180;SDS011;38158;53.338;6.514;2022-07-12T05:42:40;9.38;;;6.20;;
52180;SDS011;38158;53.338;6.514;2022-07-12T05:45:06;12.70;;;7.30;;
52180;SDS011;38158;53.338;6.514;2022-07-12T05:47:33;10.52;;;5.72;;
52180;SDS011;38158;53.338;6.514;2022-07-12T05:49:58;7.18;;;4.93;;
52180;SDS011;38158;53.338;6.514;2022-07-12T05:52:24;16.00;;;4.88;;
52180;SDS011;38158;53.338;6.514;2022-07-12T05:55:08;10.98;;;5.10;;
52180;SDS011;38158;53.338;6.514;2022-07-12T05:57:34;7.85;;;4.93;;
52180;SDS011;38158;53.338;6.514;2022-07-12T06:00:00;8.05;;;5.60;;
52180;SDS011;38158;53.338;6.514;2022-07-12T06:02:28;10.15;;;6.28;;
52180;SDS011;38158;53.338;6.514;2022-07-12T06:04:58;9.25;;;5.93;;
52180;SDS011;38158;53.338;6.514;2022-07-12T06:07:25;14.05;;;6.93;;
52180;SDS011;38158;53.338;6.514;2022-07-12T06:09:51;9.05;;;6.53;;
52180;SDS011;38158;53.338;6.514;2022-07-12T06:12:17;9.02;;;6.28;;
52180;SDS011;38158;53.338;6.514;2022-07-12T06:14:43;11.00;;;6.57;;
52180;SDS011;38158;53.338;6.514;2022-07-12T06:17:08;9.05;;;5.97;;
52180;SDS011;38158;53.338;6.514;2022-07-12T06:19:34;8.73;;;5.80;;
52180;SDS011;38158;53.338;6.514;2022-07-12T06:22:00;11.10;;;6.63;;
52180;SDS011;38158;53.338;6.514;2022-07-12T06:24:26;9.88;;;7.43;;
52180;SDS011;38158;53.338;6.514;2022-07-12T06:26:51;11.15;;;7.50;;
52180;SDS011;38158;53.338;6.514;2022-07-12T06:29:17;10.57;;;7.35;;
52180;SDS011;38158;53.338;6.514;2022-07-12T06:31:43;10.05;;;7.53;;
52180;SDS011;38158;53.338;6.514;2022-07-12T06:34:08;10.55;;;7.93;;
52180;SDS011;38158;53.338;6.514;2022-07-12T06:36:34;10.45;;;7.80;;
52180;SDS011;38158;53.338;6.514;2022-07-12T06:38:59;9.55;;;7.30;;
52180;SDS011;38158;53.338;6.514;2022-07-12T06:41:25;11.88;;;9.40;;
52180;SDS011;38158;53.338;6.514;2022-07-12T06:43:54;11.00;;;7.97;;
52180;SDS011;38158;53.338;6.514;2022-07-12T06:46:20;10.93;;;8.25;;
52180;SDS011;38158;53.338;6.514;2022-07-12T06:48:45;9.88;;;7.78;;
52180;SDS011;38158;53.338;6.514;2022-07-12T06:51:11;10.25;;;8.35;;
52180;SDS011;38158;53.338;6.514;2022-07-12T06:53:37;9.50;;;7.80;;
52180;SDS011;38158;53.338;6.514;2022-07-12T06:56:02;11.55;;;8.02;;
52180;SDS011;38158;53.338;6.514;2022-07-12T06:58:28;8.80;;;6.93;;
52180;SDS011;38158;53.338;6.514;2022-07-12T07:00:54;9.88;;;6.28;;
52180;SDS011;38158;53.338;6.514;2022-07-12T07:03:19;9.10;;;6.32;;
52180;SDS011;38158;53.338;6.514;2022-07-12T07:05:45;7.10;;;4.57;;
52180;SDS011;38158;53.338;6.514;2022-07-12T07:08:11;6.95;;;4.40;;
52180;SDS011;38158;53.338;6.514;2022-07-12T07:10:36;5.65;;;4.07;;
52180;SDS011;38158;53.338;6.514;2022-07-12T07:13:02;6.50;;;4.13;;
52180;SDS011;38158;53.338;6.514;2022-07-12T07:15:28;6.65;;;3.85;;
52180;SDS011;38158;53.338;6.514;2022-07-12T07:17:54;5.78;;;3.88;;
52180;SDS011;38158;53.338;6.514;2022-07-12T07:20:19;6.10;;;4.07;;
52180;SDS011;38158;53.338;6.514;2022-07-12T07:22:45;4.97;;;3.50;;
52180;SDS011;38158;53.338;6.514;2022-07-12T07:25:11;5.80;;;3.65;;
52180;SDS011;38158;53.338;6.514;2022-07-12T07:27:37;5.90;;;3.70;;
52180;SDS011;38158;53.338;6.514;2022-07-12T07:30:04;5.90;;;3.83;;
52180;SDS011;38158;53.338;6.514;2022-07-12T07:32:49;5.38;;;3.88;;
52180;SDS011;38158;53.338;6.514;2022-07-12T07:35:14;5.07;;;3.30;;
52180;SDS011;38158;53.338;6.514;2022-07-12T07:37:40;5.03;;;3.05;;
52180;SDS011;38158;53.338;6.514;2022-07-12T07:40:06;4.30;;;2.85;;
52180;SDS011;38158;53.338;6.514;2022-07-12T07:42:32;6.27;;;3.10;;
52180;SDS011;38158;53.338;6.514;2022-07-12T07:44:58;5.20;;;2.75;;
52180;SDS011;38158;53.338;6.514;2022-07-12T07:47:23;4.28;;;2.80;;
52180;SDS011;38158;53.338;6.514;2022-07-12T07:49:49;4.18;;;2.55;;
52180;SDS011;38158;53.338;6.514;2022-07-12T07:52:15;4.45;;;2.78;;
52180;SDS011;38158;53.338;6.514;2022-07-12T07:54:40;4.10;;;2.97;;
52180;SDS011;38158;53.338;6.514;2022-07-12T07:57:06;4.65;;;2.55;;
52180;SDS011;38158;53.338;6.514;2022-07-12T07:59:32;5.00;;;3.00;;
52180;SDS011;38158;53.338;6.514;2022-07-12T08:01:57;3.33;;;2.10;;
52180;SDS011;38158;53.338;6.514;2022-07-12T08:04:23;4.82;;;2.20;;
52180;SDS011;38158;53.338;6.514;2022-07-12T08:06:49;3.47;;;2.45;;
52180;SDS011;38158;53.338;6.514;2022-07-12T08:09:15;3.57;;;2.53;;
52180;SDS011;38158;53.338;6.514;2022-07-12T08:11:41;4.38;;;2.75;;
52180;SDS011;38158;53.338;6.514;2022-07-12T08:14:07;4.28;;;2.38;;
52180;SDS011;38158;53.338;6.514;2022-07-12T08:16:33;3.40;;;2.33;;
52180;SDS011;38158;53.338;6.514;2022-07-12T08:19:00;4.85;;;2.90;;
52180;SDS011;38158;53.338;6.514;2022-07-12T08:21:26;5.90;;;2.40;;
52180;SDS011;38158;53.338;6.514;2022-07-12T08:23:52;3.80;;;2.53;;
52180;SDS011;38158;53.338;6.514;2022-07-12T08:26:18;3.77;;;2.40;;
52180;SDS011;38158;53.338;6.514;2022-07-12T08:28:44;4.15;;;2.33;;
52180;SDS011;38158;53.338;6.514;2022-07-12T08:31:09;3.65;;;2.13;;
52180;SDS011;38158;53.338;6.514;2022-07-12T08:33:38;4.32;;;2.70;;
52180;SDS011;38158;53.338;6.514;2022-07-12T08:36:05;4.22;;;2.33;;
52180;SDS011;38158;53.338;6.514;2022-07-12T08:40:58;5.20;;;2.60;;
52180;SDS011;38158;53.338;6.514;2022-07-12T08:43:24;4.13;;;2.80;;
52180;SDS011;38158;53.338;6.514;2022-07-12T08:45:50;5.53;;;2.50;;
52180;SDS011;38158;53.338;6.514;2022-07-12T08:48:16;3.80;;;2.42;;
52180;SDS011;38158;53.338;6.514;2022-07-12T08:50:41;3.80;;;2.15;;
52180;SDS011;38158;53.338;6.514;2022-07-12T08:53:09;8.00;;;2.10;;
52180;SDS011;38158;53.338;6.514;2022-07-12T08:55:37;3.70;;;2.75;;
52180;SDS011;38158;53.338;6.514;2022-07-12T08:58:03;5.70;;;2.38;;
52180;SDS011;38158;53.338;6.514;2022-07-12T09:00:39;5.25;;;2.25;;
52180;SDS011;38158;53.338;6.514;2022-07-12T09:03:04;3.47;;;2.10;;
52180;SDS011;38158;53.338;6.514;2022-07-12T09:05:32;7.45;;;2.78;;
52180;SDS011;38158;53.338;6.514;2022-07-12T09:10:27;23.55;;;5.90;;
52180;SDS011;38158;53.338;6.514;2022-07-12T09:12:53;5.25;;;2.83;;
52180;SDS011;38158;53.338;6.514;2022-07-12T09:15:19;6.30;;;2.20;;
52180;SDS011;38158;53.338;6.514;2022-07-12T09:20:38;4.55;;;1.90;;
52180;SDS011;38158;53.338;6.514;2022-07-12T09:23:11;3.65;;;1.90;;
52180;SDS011;38158;53.338;6.514;2022-07-12T09:25:37;2.67;;;1.88;;
52180;SDS011;38158;53.338;6.514;2022-07-12T09:28:05;3.08;;;1.88;;
52180;SDS011;38158;53.338;6.514;2022-07-12T09:30:31;3.90;;;1.70;;
52180;SDS011;38158;53.338;6.514;2022-07-12T09:32:59;3.97;;;1.92;;
52180;SDS011;38158;53.338;6.514;2022-07-12T09:36:07;3.23;;;2.10;;
52180;SDS011;38158;53.338;6.514;2022-07-12T09:41:19;2.97;;;1.65;;
52180;SDS011;38158;53.338;6.514;2022-07-12T09:43:46;4.20;;;2.15;;
52180;SDS011;38158;53.338;6.514;2022-07-12T09:46:13;5.43;;;2.35;;
52180;SDS011;38158;53.338;6.514;2022-07-12T09:48:39;3.80;;;2.50;;
52180;SDS011;38158;53.338;6.514;2022-07-12T09:51:06;3.22;;;2.15;;
52180;SDS011;38158;53.338;6.514;2022-07-12T09:56:17;4.18;;;2.80;;
52180;SDS011;38158;53.338;6.514;2022-07-12T09:58:53;4.55;;;2.10;;
52180;SDS011;38158;53.338;6.514;2022-07-12T10:01:23;6.93;;;2.40;;
52180;SDS011;38158;53.338;6.514;2022-07-12T10:03:52;4.07;;;1.92;;
52180;SDS011;38158;53.338;6.514;2022-07-12T10:06:25;8.90;;;4.90;;
52180;SDS011;38158;53.338;6.514;2022-07-12T10:08:52;4.63;;;2.50;;
52180;SDS011;38158;53.338;6.514;2022-07-12T10:11:19;3.90;;;1.90;;
52180;SDS011;38158;53.338;6.514;2022-07-12T10:13:46;3.22;;;2.00;;
52180;SDS011;38158;53.338;6.514;2022-07-12T10:16:13;3.35;;;2.00;;
52180;SDS011;38158;53.338;6.514;2022-07-12T10:18:41;4.93;;;2.78;;
52180;SDS011;38158;53.338;6.514;2022-07-12T10:21:19;4.13;;;1.83;;
52180;SDS011;38158;53.338;6.514;2022-07-12T10:23:47;3.78;;;2.13;;
52180;SDS011;38158;53.338;6.514;2022-07-12T10:31:30;3.15;;;1.80;;
52180;SDS011;38158;53.338;6.514;2022-07-12T10:34:12;6.60;;;2.38;;
52180;SDS011;38158;53.338;6.514;2022-07-12T10:37:29;2.50;;;1.35;;
52180;SDS011;38158;53.338;6.514;2022-07-12T10:39:36;3.72;;;1.60;;
52180;SDS011;38158;53.338;6.514;2022-07-12T10:47:03;2.53;;;1.48;;
52180;SDS011;38158;53.338;6.514;2022-07-12T10:49:30;3.13;;;1.27;;
52180;SDS011;38158;53.338;6.514;2022-07-12T10:54:39;2.33;;;1.00;;
52180;SDS011;38158;53.338;6.514;2022-07-12T10:57:07;5.35;;;2.10;;
52180;SDS011;38158;53.338;6.514;2022-07-12T10:59:34;2.67;;;1.35;;
52180;SDS011;38158;53.338;6.514;2022-07-12T11:02:02;2.95;;;1.40;;
52180;SDS011;38158;53.338;6.514;2022-07-12T11:04:28;3.72;;;0.82;;
52180;SDS011;38158;53.338;6.514;2022-07-12T11:06:54;2.57;;;1.13;;
52180;SDS011;38158;53.338;6.514;2022-07-12T11:09:22;1.27;;;0.90;;
52180;SDS011;38158;53.338;6.514;2022-07-12T11:14:25;2.03;;;0.90;;
52180;SDS011;38158;53.338;6.514;2022-07-12T11:16:54;1.38;;;0.60;;
52180;SDS011;38158;53.338;6.514;2022-07-12T11:19:25;2.75;;;0.80;;
52180;SDS011;38158;53.338;6.514;2022-07-12T11:21:53;5.95;;;0.95;;
52180;SDS011;38158;53.338;6.514;2022-07-12T11:24:26;3.53;;;0.50;;
52180;SDS011;38158;53.338;6.514;2022-07-12T11:26:52;2.10;;;0.60;;
52180;SDS011;38158;53.338;6.514;2022-07-12T11:29:18;2.13;;;0.63;;
52180;SDS011;38158;53.338;6.514;2022-07-12T11:31:44;2.30;;;0.90;;
52180;SDS011;38158;53.338;6.514;2022-07-12T11:34:20;2.40;;;0.80;;
52180;SDS011;38158;53.338;6.514;2022-07-12T11:36:53;1.48;;;0.52;;
52180;SDS011;38158;53.338;6.514;2022-07-12T11:41:55;1.50;;;0.60;;
52180;SDS011;38158;53.338;6.514;2022-07-12T11:44:27;2.22;;;0.55;;
52180;SDS011;38158;53.338;6.514;2022-07-12T11:47:16;2.40;;;0.85;;
52180;SDS011;38158;53.338;6.514;2022-07-12T11:49:49;2.53;;;0.80;;
52180;SDS011;38158;53.338;6.514;2022-07-12T11:52:16;1.25;;;0.60;;
52180;SDS011;38158;53.338;6.514;2022-07-12T11:54:43;2.33;;;0.68;;
52180;SDS011;38158;53.338;6.514;2022-07-12T11:57:10;6.63;;;0.77;;
52180;SDS011;38158;53.338;6.514;2022-07-12T11:59:36;1.33;;;0.30;;
52180;SDS011;38158;53.338;6.514;2022-07-12T12:02:06;1.23;;;0.53;;
52180;SDS011;38158;53.338;6.514;2022-07-12T12:04:46;2.15;;;0.65;;
52180;SDS011;38158;53.338;6.514;2022-07-12T12:07:14;2.08;;;0.90;;
52180;SDS011;38158;53.338;6.514;2022-07-12T12:15:07;4.50;;;1.60;;
52180;SDS011;38158;53.338;6.514;2022-07-12T12:17:42;1.55;;;0.80;;
52180;SDS011;38158;53.338;6.514;2022-07-12T12:20:25;3.42;;;0.70;;
52180;SDS011;38158;53.338;6.514;2022-07-12T12:22:53;3.17;;;0.77;;
52180;SDS011;38158;53.338;6.514;2022-07-12T12:25:20;2.40;;;0.85;;
52180;SDS011;38158;53.338;6.514;2022-07-12T12:27:57;3.42;;;1.17;;
52180;SDS011;38158;53.338;6.514;2022-07-12T12:30:27;2.13;;;1.20;;
52180;SDS011;38158;53.338;6.514;2022-07-12T12:32:55;1.77;;;1.02;;
52180;SDS011;38158;53.338;6.514;2022-07-12T12:35:22;3.53;;;1.50;;
52180;SDS011;38158;53.338;6.514;2022-07-12T12:38:12;2.80;;;1.33;;
52180;SDS011;38158;53.338;6.514;2022-07-12T12:40:39;5.78;;;1.95;;
52180;SDS011;38158;53.338;6.514;2022-07-12T12:43:13;4.32;;;1.95;;
52180;SDS011;38158;53.338;6.514;2022-07-12T12:48:25;4.43;;;2.15;;
52180;SDS011;38158;53.338;6.514;2022-07-12T12:50:53;4.15;;;1.75;;
52180;SDS011;38158;53.338;6.514;2022-07-12T12:53:21;3.72;;;1.73;;
52180;SDS011;38158;53.338;6.514;2022-07-12T12:55:49;2.92;;;1.30;;
52180;SDS011;38158;53.338;6.514;2022-07-12T12:58:17;4.43;;;2.45;;
52180;SDS011;38158;53.338;6.514;2022-07-12T13:00:44;3.60;;;2.10;;
52180;SDS011;38158;53.338;6.514;2022-07-12T13:03:12;4.88;;;2.28;;
52180;SDS011;38158;53.338;6.514;2022-07-12T13:05:40;4.25;;;2.30;;
52180;SDS011;38158;53.338;6.514;2022-07-12T13:08:06;6.33;;;2.80;;
52180;SDS011;38158;53.338;6.514;2022-07-12T13:10:33;4.10;;;2.40;;
52180;SDS011;38158;53.338;6.514;2022-07-12T13:13:00;9.53;;;2.23;;
52180;SDS011;38158;53.338;6.514;2022-07-12T13:15:27;4.32;;;1.95;;
52180;SDS011;38158;53.338;6.514;2022-07-12T13:17:54;3.63;;;1.63;;
52180;SDS011;38158;53.338;6.514;2022-07-12T13:20:20;4.20;;;2.70;;
52180;SDS011;38158;53.338;6.514;2022-07-12T13:22:46;5.10;;;2.25;;
52180;SDS011;38158;53.338;6.514;2022-07-12T13:25:13;4.27;;;2.00;;
52180;SDS011;38158;53.338;6.514;2022-07-12T13:27:40;4.20;;;1.65;;
52180;SDS011;38158;53.338;6.514;2022-07-12T13:30:10;3.70;;;1.58;;
52180;SDS011;38158;53.338;6.514;2022-07-12T13:32:37;2.92;;;1.45;;
52180;SDS011;38158;53.338;6.514;2022-07-12T13:35:04;4.15;;;1.45;;
52180;SDS011;38158;53.338;6.514;2022-07-12T13:37:31;3.40;;;1.27;;
52180;SDS011;38158;53.338;6.514;2022-07-12T13:42:42;1.80;;;0.70;;
52180;SDS011;38158;53.338;6.514;2022-07-12T13:47:35;1.27;;;0.60;;
52180;SDS011;38158;53.338;6.514;2022-07-12T13:50:01;7.70;;;0.80;;
52180;SDS011;38158;53.338;6.514;2022-07-12T13:52:28;3.95;;;0.70;;
52180;SDS011;38158;53.338;6.514;2022-07-12T13:54:53;1.77;;;0.60;;
52180;SDS011;38158;53.338;6.514;2022-07-12T13:57:19;3.73;;;0.50;;
52180;SDS011;38158;53.338;6.514;2022-07-12T13:59:45;3.63;;;0.80;;
52180;SDS011;38158;53.338;6.514;2022-07-12T14:02:11;1.73;;;0.87;;
52180;SDS011;38158;53.338;6.514;2022-07-12T14:04:38;2.05;;;0.60;;
52180;SDS011;38158;53.338;6.514;2022-07-12T14:07:03;2.40;;;1.10;;
52180;SDS011;38158;53.338;6.514;2022-07-12T14:09:29;1.83;;;0.90;;
52180;SDS011;38158;53.338;6.514;2022-07-12T14:11:55;3.57;;;1.00;;
52180;SDS011;38158;53.338;6.514;2022-07-12T14:14:21;2.27;;;0.60;;
52180;SDS011;38158;53.338;6.514;2022-07-12T14:17:05;2.78;;;0.50;;
52180;SDS011;38158;53.338;6.514;2022-07-12T14:19:32;2.23;;;0.60;;
52180;SDS011;38158;53.338;6.514;2022-07-12T14:21:58;2.47;;;0.40;;
52180;SDS011;38158;53.338;6.514;2022-07-12T14:24:23;1.93;;;0.53;;
52180;SDS011;38158;53.338;6.514;2022-07-12T14:26:49;2.73;;;0.40;;
52180;SDS011;38158;53.338;6.514;2022-07-12T14:29:15;1.15;;;0.40;;
52180;SDS011;38158;53.338;6.514;2022-07-12T14:31:41;1.70;;;0.40;;
52180;SDS011;38158;53.338;6.514;2022-07-12T14:34:07;3.13;;;0.60;;
52180;SDS011;38158;53.338;6.514;2022-07-12T14:36:33;2.47;;;0.53;;
52180;SDS011;38158;53.338;6.514;2022-07-12T14:38:58;2.33;;;0.60;;
52180;SDS011;38158;53.338;6.514;2022-07-12T14:41:25;2.03;;;0.40;;
52180;SDS011;38158;53.338;6.514;2022-07-12T14:43:51;9.80;;;0.70;;
52180;SDS011;38158;53.338;6.514;2022-07-12T14:46:17;5.63;;;0.60;;
52180;SDS011;38158;53.338;6.514;2022-07-12T14:48:43;1.13;;;0.50;;
52180;SDS011;38158;53.338;6.514;2022-07-12T14:51:09;2.53;;;0.47;;
52180;SDS011;38158;53.338;6.514;2022-07-12T14:53:35;1.33;;;0.50;;
52180;SDS011;38158;53.338;6.514;2022-07-12T14:56:01;1.53;;;0.60;;
52180;SDS011;38158;53.338;6.514;2022-07-12T14:58:26;4.43;;;0.63;;
52180;SDS011;38158;53.338;6.514;2022-07-12T15:00:55;2.58;;;0.90;;
52180;SDS011;38158;53.338;6.514;2022-07-12T15:03:21;5.32;;;0.70;;
52180;SDS011;38158;53.338;6.514;2022-07-12T15:05:46;1.53;;;0.63;;
52180;SDS011;38158;53.338;6.514;2022-07-12T15:08:12;4.20;;;0.70;;
52180;SDS011;38158;53.338;6.514;2022-07-12T15:10:38;5.67;;;0.87;;
52180;SDS011;38158;53.338;6.514;2022-07-12T15:13:04;1.90;;;0.70;;
52180;SDS011;38158;53.338;6.514;2022-07-12T15:15:30;1.50;;;0.60;;
52180;SDS011;38158;53.338;6.514;2022-07-12T15:17:57;3.05;;;0.90;;
52180;SDS011;38158;53.338;6.514;2022-07-12T15:20:22;3.00;;;0.67;;
52180;SDS011;38158;53.338;6.514;2022-07-12T15:22:48;1.97;;;0.50;;
52180;SDS011;38158;53.338;6.514;2022-07-12T15:25:14;1.27;;;0.60;;
52180;SDS011;38158;53.338;6.514;2022-07-12T15:27:40;0.93;;;0.50;;
52180;SDS011;38158;53.338;6.514;2022-07-12T15:30:06;2.83;;;0.50;;
52180;SDS011;38158;53.338;6.514;2022-07-12T15:32:32;1.43;;;0.70;;
52180;SDS011;38158;53.338;6.514;2022-07-12T15:34:57;1.73;;;0.73;;